»·PEaware :: N1453S KAVX-KSAN

N1453S :: KAVX-KSAN

FLIGHT INFORMATION

Flight Status: Arrived
Operator: Privately registered:
United States
More flights under this callsign
Pilot: Langdon M. (23058)
Aircraft: BEECH AIRCRAFT BARON
(BE58)
More flights by this aircraft type
Origin: KAVX Catalina
United States
Destination: KSAN San Diego Intl-Lindbergh
United States
More flights between these airports :: More routes between these airports
Route: +SXC V208 OCN V23 MZB
File this flight plan on PilotEdge
Remarks: I-8
Altitude:
(Current/Filed)
5,000ft
Speed:
(Current/Filed)
190kts
Departed: 02-Feb-19 06:04 PM
Arrived: 02-Feb-19 06:47 PM
Distance/Time
Traveled:
93nm/0:43
Distance/Time
To Go:
Arrived

Flight Plot

Page will automatically refresh every two minutes.


Map Options




Map Legend


Flown Route
Filed Route
Departure Airport
Arrival Airport
Navaid (VOR, NDB)
Fix

Horizontal Profiles

Position Reports

Time Latitude Longitude Heading Altitude Ground
Speed
02-Feb-19 18:00 33.407161 -118.411415 54 1606ft 0kts
02-Feb-19 18:01 33.407161 -118.411415 54 1606ft 0kts
02-Feb-19 18:02 33.407186 -118.411375 45 1606ft 0kts
02-Feb-19 18:03 33.407311 -118.411426 318 1606ft 4kts
02-Feb-19 18:04 33.399272 -118.424709 234 1826ft 114kts
02-Feb-19 18:05 33.373379 -118.442207 149 3100ft 151kts
02-Feb-19 18:06 33.375271 -118.393618 108 4264ft 168kts
02-Feb-19 18:07 33.365516 -118.336337 112 4954ft 175kts
02-Feb-19 18:08 33.360730 -118.274752 99 5177ft 206kts
02-Feb-19 18:09 33.342726 -118.211473 108 4991ft 207kts
02-Feb-19 18:10 33.350990 -118.142949 104 4963ft 198kts
02-Feb-19 18:11 33.343402 -118.078261 105 5127ft 183kts
02-Feb-19 18:12 33.331495 -118.018324 116 5170ft 181kts
02-Feb-19 18:13 33.315111 -117.958769 112 4973ft 189kts
02-Feb-19 18:14 33.304276 -117.898139 99 4990ft 187kts
02-Feb-19 18:15 33.298947 -117.836430 106 5021ft 187kts
02-Feb-19 18:16 33.286807 -117.776253 99 4960ft 191kts
02-Feb-19 18:17 33.278687 -117.715009 97 5071ft 180kts
02-Feb-19 18:18 33.274474 -117.653571 98 4905ft 187kts
02-Feb-19 18:18 33.269697 -117.603377 107 4967ft 182kts
02-Feb-19 18:20 33.259846 -117.534270 103 5094ft 180kts
02-Feb-19 18:21 33.251949 -117.475077 108 5122ft 179kts
02-Feb-19 18:21 33.239276 -117.427691 131 5223ft 172kts
02-Feb-19 18:22 33.196206 -117.398533 159 4896ft 183kts
02-Feb-19 18:23 33.149108 -117.379235 159 4947ft 177kts
02-Feb-19 18:24 33.103057 -117.358656 159 4953ft 176kts
02-Feb-19 18:25 33.055250 -117.343265 157 4927ft 178kts
02-Feb-19 18:26 33.010447 -117.316986 157 4915ft 180kts
02-Feb-19 18:27 32.962317 -117.300790 161 4924ft 181kts
02-Feb-19 18:28 32.915563 -117.278502 157 4918ft 183kts
02-Feb-19 18:29 32.866870 -117.259481 170 4870ft 185kts
02-Feb-19 18:30 32.822084 -117.229204 119 4959ft 205kts
02-Feb-19 18:31 32.797087 -117.165162 119 4802ft 217kts
02-Feb-19 18:32 32.770390 -117.101891 122 4987ft 211kts
02-Feb-19 18:33 32.757097 -117.032273 100 4975ft 218kts
02-Feb-19 18:34 32.748893 -116.960342 100 4995ft 217kts
02-Feb-19 18:35 32.738825 -116.895902 140 4865ft 176kts
02-Feb-19 18:36 32.694530 -116.896878 192 4079ft 152kts
02-Feb-19 18:37 32.679011 -116.929276 268 4101ft 107kts
02-Feb-19 18:38 32.680866 -116.965616 289 3687ft 117kts
02-Feb-19 18:39 32.689553 -117.001717 280 2898ft 116kts
02-Feb-19 18:40 32.697878 -117.035310 284 2704ft 103kts
02-Feb-19 18:41 32.704277 -117.069865 278 2084ft 111kts
02-Feb-19 18:42 32.713601 -117.101277 280 976ft 95kts
02-Feb-19 18:43 32.719325 -117.129824 277 713ft 85kts
02-Feb-19 18:44 32.725749 -117.158147 282 486ft 93kts
02-Feb-19 18:45 32.732687 -117.185947 286 21ft 67kts
02-Feb-19 18:46 32.734833 -117.190553 76 21ft 7kts
02-Feb-19 18:47 32.733877 -117.186227 103 21ft 18kts
02-Feb-19 18:48 32.732249 -117.179495 107 21ft 23kts
02-Feb-19 18:49 32.732512 -117.176578 321 21ft 25kts
02-Feb-19 18:50 32.733837 -117.179522 153 21ft 5kts
02-Feb-19 18:51 32.733098 -117.179295 168 21ft 0kts
02-Feb-19 18:52 34.422653 -119.835589 340 17ft 0kts
02-Feb-19 18:53 34.422653 -119.835589 340 17ft 0kts

Navigation Log

Ident Type
Flight plan parsing failed, navigation log unavailable